Time;durP1;ratioP1;P1;durP2;ratioP2;P2;SDS_P1;SDS_P2;PMS_P1;PMS_P2;Temp;Humidity;BMP_temperature;BMP_pressure;BME280_temperature;BME280_humidity;BME280_pressure;Samples;Min_cycle;Max_cycle;Signal;HPM_P1;HPM_P2
2021/08/27 00:00:20;;;;;;;;;;;14.00;99.90;;;;;;5074125;28;19921;-81
2021/08/27 00:02:46;;;;;;;;;;;13.90;99.90;;;;;;5059477;28;19908;-79
2021/08/27 00:05:11;;;;;;;;;;;13.90;99.90;;;;;;5036732;28;19920;-80
2021/08/27 00:07:37;;;;;;;;;;;14.00;99.90;;;;;;5055767;28;20414;-80
2021/08/27 00:10:03;;;;;;;;;;;14.00;99.90;;;;;;5049802;28;19913;-79
2021/08/27 00:12:28;;;;;;;;;;;14.00;99.90;;;;;;5061797;28;20003;-79
2021/08/27 00:14:54;;;;;;;;;;;14.00;99.90;;;;;;5053758;28;20358;-80
2021/08/27 00:17:29;;;;;;;;;;;13.90;99.90;;;;;;5053147;28;19931;-81
2021/08/27 00:19:55;;;;;;;;;;;13.90;99.90;;;;;;5063806;28;19913;-80
2021/08/27 00:22:20;;;;;;;;;;;13.90;99.90;;;;;;5054574;28;19935;-78
2021/08/27 00:24:46;;;;;;;;;;;13.90;99.90;;;;;;5055544;28;20303;-79
2021/08/27 00:27:11;;;;;;;;;;;13.90;99.90;;;;;;5057614;28;20215;-79
2021/08/27 00:29:37;;;;;;;;;;;13.90;99.90;;;;;;5055700;28;19923;-79
2021/08/27 00:32:02;;;;;;;;;;;13.90;99.90;;;;;;5072140;28;19999;-78
2021/08/27 00:34:28;;;;;;;;;;;13.80;99.90;;;;;;5044750;28;19913;-79
2021/08/27 00:36:54;;;;;;;;;;;13.80;99.90;;;;;;5045084;28;19916;-79
2021/08/27 00:39:19;;;;;;;;;;;13.80;99.90;;;;;;5072726;28;20311;-79
2021/08/27 00:41:45;;;;;;;;;;;13.70;99.90;;;;;;5043342;28;19960;-79
2021/08/27 00:44:10;;;;;;;;;;;13.70;99.90;;;;;;5080206;28;19916;-80
2021/08/27 00:46:36;;;;;;;;;;;13.60;99.90;;;;;;5075435;28;19912;-80
2021/08/27 00:49:02;;;;;;;;;;;13.60;99.90;;;;;;5080137;28;19913;-80
2021/08/27 00:51:28;;;;;;;;;;;13.60;99.90;;;;;;5062972;28;19927;-80
2021/08/27 00:53:53;;;;;;;;;;;13.60;99.90;;;;;;5071702;28;19909;-80
2021/08/27 00:56:19;;;;;;;;;;;13.50;99.90;;;;;;5057164;28;19935;-79
2021/08/27 00:58:44;;;;;;;;;;;13.50;99.90;;;;;;5070821;28;20252;-79
2021/08/27 01:01:10;;;;;;;;;;;13.50;99.90;;;;;;5058462;28;20264;-80
2021/08/27 01:03:36;;;;;;;;;;;13.50;99.90;;;;;;5071341;28;20011;-80
2021/08/27 01:06:01;;;;;;;;;;;13.50;99.90;;;;;;5073824;28;19916;-80
2021/08/27 01:08:36;;;;;;;;;;;13.50;99.90;;;;;;5076271;28;19965;-80
2021/08/27 01:11:13;;;;;;;;;;;13.50;99.90;;;;;;5058932;28;20279;-79
2021/08/27 01:13:46;;;;;;;;;;;13.50;99.90;;;;;;5062565;28;19917;-79
2021/08/27 01:16:15;;;;;;;;;;;13.50;99.90;;;;;;5053212;28;19916;-79
2021/08/27 01:19:07;;;;;;;;;;;13.50;99.90;;;;;;5057670;28;19924;-79
2021/08/27 01:21:36;;;;;;;;;;;13.50;99.90;;;;;;5029773;28;19967;-80
2021/08/27 01:24:04;;;;;;;;;;;13.50;99.90;;;;;;5073838;28;20342;-79
2021/08/27 01:26:32;;;;;;;;;;;13.50;99.90;;;;;;5057137;28;19908;-79
2021/08/27 01:28:59;;;;;;;;;;;13.50;99.90;;;;;;5047971;28;19921;-80
2021/08/27 01:31:25;;;;;;;;;;;13.50;99.90;;;;;;5053398;28;19962;-79
2021/08/27 01:33:59;;;;;;;;;;;13.50;99.90;;;;;;5056535;28;19972;-78
2021/08/27 01:36:26;;;;;;;;;;;13.50;99.90;;;;;;5065529;28;19912;-80
2021/08/27 01:38:52;;;;;;;;;;;13.50;99.90;;;;;;5055879;28;19931;-79
2021/08/27 01:41:17;;;;;;;;;;;13.50;99.90;;;;;;5053737;28;20249;-79
2021/08/27 01:43:44;;;;;;;;;;;13.50;99.90;;;;;;5071356;28;19916;-80
2021/08/27 01:46:10;;;;;;;;;;;13.50;99.90;;;;;;5053804;28;19912;-79
2021/08/27 01:48:38;;;;;;;;;;;13.50;99.90;;;;;;5041477;28;20123;-81
2021/08/27 01:51:04;;;;;;;;;;;13.50;99.90;;;;;;5056132;28;19959;-82
2021/08/27 01:53:31;;;;;;;;;;;13.60;99.90;;;;;;5054525;28;19920;-83
2021/08/27 01:56:00;;;;;;;;;;;13.60;99.90;;;;;;5050291;28;19912;-83
2021/08/27 01:58:27;;;;;;;;;;;13.60;99.90;;;;;;5069347;28;19913;-81
2021/08/27 02:00:54;;;;;;;;;;;13.60;99.90;;;;;;5053516;28;19915;-84
2021/08/27 02:03:20;;;;;;;;;;;13.60;99.90;;;;;;5053872;28;19916;-81
2021/08/27 02:05:46;;;;;;;;;;;13.60;99.90;;;;;;5067730;28;21566;-81
2021/08/27 02:08:12;;;;;;;;;;;13.60;99.90;;;;;;5075830;28;19948;-79
2021/08/27 02:10:38;;;;;;;;;;;13.60;99.90;;;;;;5060866;28;20336;-81
2021/08/27 02:13:04;;;;;;;;;;;13.60;99.90;;;;;;5066759;28;19916;-81
2021/08/27 02:15:30;;;;;;;;;;;13.60;99.90;;;;;;5071772;28;19985;-82
2021/08/27 02:17:56;;;;;;;;;;;13.60;99.90;;;;;;5060333;28;20242;-83
2021/08/27 02:20:22;;;;;;;;;;;13.60;99.90;;;;;;5071208;28;19986;-81
2021/08/27 02:22:51;;;;;;;;;;;13.60;99.90;;;;;;5069853;28;19978;-81
2021/08/27 02:25:18;;;;;;;;;;;13.60;99.90;;;;;;5056006;28;19924;-81
2021/08/27 02:27:44;;;;;;;;;;;13.60;99.90;;;;;;5040938;28;19934;-84
2021/08/27 02:30:11;;;;;;;;;;;13.70;99.90;;;;;;5047749;28;19916;-81
2021/08/27 02:32:37;;;;;;;;;;;13.70;99.90;;;;;;5054351;28;19920;-84
2021/08/27 02:35:03;;;;;;;;;;;13.70;99.90;;;;;;5050831;28;19927;-82
2021/08/27 02:37:30;;;;;;;;;;;13.70;99.90;;;;;;5050367;28;19932;-81
2021/08/27 02:39:57;;;;;;;;;;;13.70;99.90;;;;;;5046895;28;19962;-82
2021/08/27 02:42:27;;;;;;;;;;;13.70;99.90;;;;;;5066984;28;19921;-83
2021/08/27 02:44:53;;;;;;;;;;;13.70;99.90;;;;;;5046281;28;19919;-83
2021/08/27 02:47:18;;;;;;;;;;;13.70;99.90;;;;;;5055050;28;20299;-82
2021/08/27 02:49:44;;;;;;;;;;;13.70;99.90;;;;;;5048679;28;19952;-83
2021/08/27 02:52:10;;;;;;;;;;;13.80;99.90;;;;;;5065288;28;20252;-81
2021/08/27 02:54:40;;;;;;;;;;;13.80;99.90;;;;;;5056058;28;20011;-83
2021/08/27 02:57:05;;;;;;;;;;;13.80;99.90;;;;;;5068791;28;19920;-80
2021/08/27 02:59:31;;;;;;;;;;;13.90;99.90;;;;;;5072252;28;19919;-82
2021/08/27 03:01:58;;;;;;;;;;;13.90;99.90;;;;;;5053629;28;19919;-84
2021/08/27 03:04:39;;;;;;;;;;;14.00;99.90;;;;;;5071241;28;19916;-84
2021/08/27 03:07:06;;;;;;;;;;;14.00;99.90;;;;;;5066189;28;19991;-83
2021/08/27 03:09:38;;;;;;;;;;;14.10;99.90;;;;;;5045272;28;19947;-83
2021/08/27 03:12:05;;;;;;;;;;;14.10;99.90;;;;;;5061258;28;20660;-84
2021/08/27 03:14:33;;;;;;;;;;;14.20;99.90;;;;;;5066878;28;19912;-81
2021/08/27 03:17:01;;;;;;;;;;;14.20;99.90;;;;;;5050222;28;19916;-82
2021/08/27 03:19:29;;;;;;;;;;;14.20;99.90;;;;;;5056781;28;19916;-81
2021/08/27 03:22:27;;;;;;;;;;;14.30;99.90;;;;;;5078786;28;19917;-82
2021/08/27 03:24:59;;;;;;;;;;;14.30;99.90;;;;;;4957639;28;19926;-80
2021/08/27 03:27:26;;;;;;;;;;;14.30;99.90;;;;;;4968347;28;19921;-84
2021/08/27 03:29:54;;;;;;;;;;;14.30;99.90;;;;;;4957546;28;20348;-83
2021/08/27 03:32:20;;;;;;;;;;;14.30;99.90;;;;;;4973265;28;19923;-80
2021/08/27 03:34:47;;;;;;;;;;;14.30;99.90;;;;;;4957463;28;20325;-81
2021/08/27 03:37:13;;;;;;;;;;;14.30;99.90;;;;;;4974011;28;19996;-82
2021/08/27 03:39:39;;;;;;;;;;;14.30;99.90;;;;;;4940815;28;20034;-80
2021/08/27 03:42:05;;;;;;;;;;;14.30;99.90;;;;;;4964604;28;19925;-82
2021/08/27 03:44:32;;;;;;;;;;;14.30;99.90;;;;;;4956009;28;19961;-79
2021/08/27 03:46:58;;;;;;;;;;;14.40;99.90;;;;;;4971729;28;19917;-80
2021/08/27 03:49:24;;;;;;;;;;;14.50;99.90;;;;;;4971700;28;19928;-81
2021/08/27 03:51:49;;;;;;;;;;;14.50;99.90;;;;;;4955289;28;19997;-80
2021/08/27 03:54:16;;;;;;;;;;;14.50;99.90;;;;;;4973544;28;19918;-79
2021/08/27 03:56:42;;;;;;;;;;;14.60;99.90;;;;;;4971459;28;19921;-79
2021/08/27 03:59:09;;;;;;;;;;;14.60;99.90;;;;;;4957295;28;19914;-79
2021/08/27 04:01:34;;;;;;;;;;;14.70;99.90;;;;;;5063813;28;19961;-80
2021/08/27 04:04:00;;;;;;;;;;;14.70;99.90;;;;;;5055228;28;19924;-81
2021/08/27 04:06:25;;;;;;;;;;;14.70;99.90;;;;;;5052254;28;19923;-82
2021/08/27 04:08:51;;;;;;;;;;;14.70;99.90;;;;;;5054475;28;20303;-80
2021/08/27 04:11:18;;;;;;;;;;;14.60;99.90;;;;;;5054357;28;19913;-81
2021/08/27 04:13:44;;;;;;;;;;;14.60;99.90;;;;;;5072820;28;19920;-80
2021/08/27 04:16:10;;;;;;;;;;;14.50;99.90;;;;;;5070759;28;19913;-83
2021/08/27 04:18:36;;;;;;;;;;;14.40;99.90;;;;;;5072647;28;19916;-81
2021/08/27 04:21:02;;;;;;;;;;;14.40;99.90;;;;;;5055943;28;19971;-80
2021/08/27 04:23:28;;;;;;;;;;;14.30;99.90;;;;;;5056450;28;19986;-82
2021/08/27 04:25:53;;;;;;;;;;;14.30;99.90;;;;;;5074147;28;19912;-81
2021/08/27 04:28:19;;;;;;;;;;;14.20;99.90;;;;;;5074845;28;20300;-82
2021/08/27 04:30:44;;;;;;;;;;;14.20;99.90;;;;;;5057168;28;19920;-81
2021/08/27 04:33:10;;;;;;;;;;;14.10;99.90;;;;;;5054093;28;20030;-79
2021/08/27 04:35:36;;;;;;;;;;;14.10;99.90;;;;;;5074036;28;20269;-80
2021/08/27 04:38:01;;;;;;;;;;;14.10;99.90;;;;;;5075002;28;19924;-79
2021/08/27 04:40:27;;;;;;;;;;;14.10;99.90;;;;;;5057224;28;19939;-80
2021/08/27 04:42:53;;;;;;;;;;;14.00;99.90;;;;;;5075268;28;20009;-80
2021/08/27 04:45:18;;;;;;;;;;;14.10;99.90;;;;;;5057044;28;20226;-79
2021/08/27 04:47:44;;;;;;;;;;;14.10;99.90;;;;;;5057246;28;19920;-80
2021/08/27 04:50:10;;;;;;;;;;;14.00;99.90;;;;;;5057597;28;20027;-81
2021/08/27 04:52:35;;;;;;;;;;;13.90;99.90;;;;;;5057775;28;20327;-80
2021/08/27 04:55:01;;;;;;;;;;;13.90;99.90;;;;;;5056034;28;20643;-80
2021/08/27 04:57:28;;;;;;;;;;;13.80;99.90;;;;;;5058856;28;19912;-82
2021/08/27 04:59:54;;;;;;;;;;;13.80;99.90;;;;;;5074391;28;20193;-79
2021/08/27 05:02:20;;;;;;;;;;;13.80;99.90;;;;;;5071105;28;19981;-80
2021/08/27 05:04:45;;;;;;;;;;;13.80;99.90;;;;;;5072472;28;20307;-80
2021/08/27 05:07:11;;;;;;;;;;;13.70;99.90;;;;;;5071189;28;19917;-80
2021/08/27 05:09:37;;;;;;;;;;;13.70;99.90;;;;;;5052681;28;19916;-81
2021/08/27 05:12:03;;;;;;;;;;;13.60;99.90;;;;;;5074029;28;19930;-81
2021/08/27 05:14:28;;;;;;;;;;;13.60;99.90;;;;;;5073261;28;19921;-80
2021/08/27 05:16:54;;;;;;;;;;;13.60;99.90;;;;;;5058685;28;19995;-80
2021/08/27 05:19:19;;;;;;;;;;;13.60;99.90;;;;;;5076449;28;19928;-82
2021/08/27 05:21:45;;;;;;;;;;;13.60;99.90;;;;;;5076608;28;19966;-81
2021/08/27 05:24:10;;;;;;;;;;;13.60;99.90;;;;;;5068374;28;20292;-82
2021/08/27 05:26:36;;;;;;;;;;;13.70;99.90;;;;;;5065221;28;20015;-82
2021/08/27 05:29:02;;;;;;;;;;;13.70;99.90;;;;;;5051872;28;19973;-82
2021/08/27 05:31:28;;;;;;;;;;;13.70;99.90;;;;;;5075389;28;19924;-82
2021/08/27 05:33:53;;;;;;;;;;;13.70;99.90;;;;;;5054650;28;20368;-81
2021/08/27 05:36:19;;;;;;;;;;;13.70;99.90;;;;;;5055928;28;19913;-81
2021/08/27 05:38:45;;;;;;;;;;;13.80;99.90;;;;;;5080640;28;19923;-82
2021/08/27 05:41:10;;;;;;;;;;;13.80;99.90;;;;;;5055691;28;20307;-81
2021/08/27 05:43:36;;;;;;;;;;;13.80;99.90;;;;;;5064264;28;19921;-83
2021/08/27 05:46:02;;;;;;;;;;;13.80;99.90;;;;;;5068180;28;19920;-82
2021/08/27 05:48:27;;;;;;;;;;;13.90;99.90;;;;;;5068788;28;20005;-83
2021/08/27 05:50:54;;;;;;;;;;;14.00;99.90;;;;;;5053096;28;20366;-84
2021/08/27 05:53:20;;;;;;;;;;;14.10;99.90;;;;;;5057703;28;19913;-82
2021/08/27 05:55:45;;;;;;;;;;;14.10;99.90;;;;;;5052171;28;19912;-83
2021/08/27 05:58:11;;;;;;;;;;;14.20;99.90;;;;;;5065376;28;20058;-86
2021/08/27 06:00:36;;;;;;;;;;;14.30;99.90;;;;;;5061364;28;19920;-83
2021/08/27 06:03:02;;;;;;;;;;;14.40;99.90;;;;;;5054433;28;19923;-83
2021/08/27 06:05:28;;;;;;;;;;;14.50;99.90;;;;;;5072821;28;20065;-83
2021/08/27 06:07:53;;;;;;;;;;;14.60;99.90;;;;;;5057626;28;19920;-83
2021/08/27 06:10:19;;;;;;;;;;;14.70;99.90;;;;;;5055286;28;19913;-81
2021/08/27 06:12:45;;;;;;;;;;;14.70;99.90;;;;;;5055284;28;19917;-83
2021/08/27 06:15:11;;;;;;;;;;;14.80;99.90;;;;;;5055798;28;19992;-82
2021/08/27 06:17:36;;;;;;;;;;;14.80;99.90;;;;;;5053632;28;19923;-80
2021/08/27 06:20:03;;;;;;;;;;;14.80;99.90;;;;;;5073472;28;19912;-83
2021/08/27 06:22:28;;;;;;;;;;;14.80;99.90;;;;;;5053646;28;19916;-81
2021/08/27 06:24:54;;;;;;;;;;;14.80;99.90;;;;;;5052643;28;19970;-80
2021/08/27 06:27:19;;;;;;;;;;;14.90;99.90;;;;;;5055031;28;20350;-80
2021/08/27 06:29:45;;;;;;;;;;;15.00;99.90;;;;;;5075113;28;19955;-81
2021/08/27 06:32:11;;;;;;;;;;;15.00;99.90;;;;;;5067471;28;19917;-82
2021/08/27 06:34:36;;;;;;;;;;;15.10;99.90;;;;;;5072352;28;19912;-80
2021/08/27 06:37:02;;;;;;;;;;;15.20;99.90;;;;;;5074033;28;20011;-81
2021/08/27 06:39:28;;;;;;;;;;;15.30;99.90;;;;;;5072702;28;19921;-79
2021/08/27 06:41:54;;;;;;;;;;;15.30;99.90;;;;;;5072963;28;19916;-85
2021/08/27 06:44:19;;;;;;;;;;;15.40;99.90;;;;;;5052440;28;20288;-80
2021/08/27 06:46:45;;;;;;;;;;;15.40;99.90;;;;;;5070647;28;19965;-84
2021/08/27 06:49:11;;;;;;;;;;;15.50;99.90;;;;;;5073078;28;20261;-81
2021/08/27 06:51:41;;;;;;;;;;;15.50;99.90;;;;;;5055415;28;19920;-81
2021/08/27 06:54:06;;;;;;;;;;;15.50;99.90;;;;;;5071060;28;19921;-82
2021/08/27 06:56:32;;;;;;;;;;;15.60;99.90;;;;;;5055198;28;19920;-80
2021/08/27 06:58:58;;;;;;;;;;;15.60;99.90;;;;;;5073820;28;20239;-80
2021/08/27 07:01:24;;;;;;;;;;;15.70;99.90;;;;;;5073599;28;19958;-83
2021/08/27 07:03:50;;;;;;;;;;;15.80;99.90;;;;;;5073470;28;19975;-83
2021/08/27 07:06:15;;;;;;;;;;;15.80;99.90;;;;;;5073130;28;19916;-87
2021/08/27 07:08:41;;;;;;;;;;;15.90;99.90;;;;;;5053674;28;19912;-86
2021/08/27 07:11:07;;;;;;;;;;;16.00;99.90;;;;;;5071145;28;20003;-79
2021/08/27 07:13:33;;;;;;;;;;;16.10;99.90;;;;;;5057419;28;19999;-85
2021/08/27 07:15:58;;;;;;;;;;;16.20;99.90;;;;;;5065990;28;19989;-80
2021/08/27 07:18:24;;;;;;;;;;;16.40;99.90;;;;;;5068602;28;19915;-80
2021/08/27 07:20:50;;;;;;;;;;;16.40;99.90;;;;;;5050152;28;19917;-79
2021/08/27 07:23:16;;;;;;;;;;;16.40;99.90;;;;;;5054399;28;20007;-78
2021/08/27 07:25:42;;;;;;;;;;;16.40;99.90;;;;;;5066943;28;20215;-76
2021/08/27 07:28:07;;;;;;;;;;;16.40;99.90;;;;;;5050197;28;19913;-79
2021/08/27 07:30:33;;;;;;;;;;;16.70;99.90;;;;;;5047646;28;19956;-77
2021/08/27 07:32:59;;;;;;;;;;;16.90;99.90;;;;;;5071881;28;19930;-77
2021/08/27 07:35:24;;;;;;;;;;;17.00;99.90;;;;;;5053913;28;19919;-77
2021/08/27 07:37:50;;;;;;;;;;;17.00;99.90;;;;;;5074086;28;19994;-77
2021/08/27 07:40:16;;;;;;;;;;;17.10;99.90;;;;;;5071904;28;19917;-77
2021/08/27 07:42:42;;;;;;;;;;;17.20;99.90;;;;;;5067830;28;20203;-77
2021/08/27 07:45:08;;;;;;;;;;;17.30;99.90;;;;;;5051988;28;19921;-77
2021/08/27 07:47:33;;;;;;;;;;;17.30;99.90;;;;;;5072412;28;19948;-76
2021/08/27 07:49:59;;;;;;;;;;;17.40;99.90;;;;;;5043519;28;19913;-77
2021/08/27 07:52:24;;;;;;;;;;;17.40;99.90;;;;;;5065394;28;19917;-73
2021/08/27 07:54:50;;;;;;;;;;;17.30;99.90;;;;;;5072995;28;19966;-78
2021/08/27 07:57:16;;;;;;;;;;;17.40;99.90;;;;;;5074640;28;19920;-76
2021/08/27 07:59:41;;;;;;;;;;;17.30;99.90;;;;;;5070636;28;19920;-78
2021/08/27 08:02:08;;;;;;;;;;;17.30;99.90;;;;;;5075800;28;19913;-77
2021/08/27 08:04:33;;;;;;;;;;;17.20;99.90;;;;;;5078053;28;19916;-78
2021/08/27 08:06:59;;;;;;;;;;;17.10;99.90;;;;;;5071048;28;19915;-77
2021/08/27 08:09:25;;;;;;;;;;;17.00;99.90;;;;;;5072856;28;19917;-77
2021/08/27 08:11:51;;;;;;;;;;;17.00;99.90;;;;;;5076748;28;19916;-76
2021/08/27 08:14:16;;;;;;;;;;;16.90;99.90;;;;;;5067703;28;19920;-79
2021/08/27 08:16:42;;;;;;;;;;;16.90;99.90;;;;;;5069815;28;19913;-78
2021/08/27 08:19:10;;;;;;;;;;;16.80;99.90;;;;;;5075073;28;19917;-75
2021/08/27 08:21:36;;;;;;;;;;;16.70;99.90;;;;;;5057588;28;19924;-76
2021/08/27 08:24:01;;;;;;;;;;;16.70;99.90;;;;;;5076083;28;19920;-74
2021/08/27 08:26:27;;;;;;;;;;;16.60;99.90;;;;;;5074325;28;20360;-75
2021/08/27 08:28:54;;;;;;;;;;;16.60;99.90;;;;;;5076808;28;19970;-78
2021/08/27 08:31:20;;;;;;;;;;;16.40;99.90;;;;;;5055577;28;19921;-76
2021/08/27 08:33:47;;;;;;;;;;;16.20;99.90;;;;;;5074339;28;19935;-78
2021/08/27 08:36:13;;;;;;;;;;;16.00;99.90;;;;;;5057810;28;19912;-78
2021/08/27 08:38:38;;;;;;;;;;;15.70;99.90;;;;;;5073994;28;19912;-77
2021/08/27 08:41:04;;;;;;;;;;;15.70;99.90;;;;;;5073075;28;19935;-76
2021/08/27 08:43:30;;;;;;;;;;;15.70;99.90;;;;;;5057429;28;19925;-76
2021/08/27 08:45:56;;;;;;;;;;;15.70;99.90;;;;;;5055999;28;20304;-77
2021/08/27 08:48:22;;;;;;;;;;;15.70;99.90;;;;;;5075261;28;19919;-76
2021/08/27 08:50:47;;;;;;;;;;;15.80;99.90;;;;;;5074633;28;19924;-78
2021/08/27 08:53:13;;;;;;;;;;;15.80;99.90;;;;;;5073171;28;20239;-77
2021/08/27 08:55:40;;;;;;;;;;;15.90;99.90;;;;;;5047985;28;19916;-76
2021/08/27 08:58:05;;;;;;;;;;;16.10;99.90;;;;;;5053690;28;20288;-77
2021/08/27 09:00:31;;;;;;;;;;;16.30;99.90;;;;;;5058085;28;19947;-77
2021/08/27 09:02:58;;;;;;;;;;;16.50;99.90;;;;;;5067648;28;19962;-76
2021/08/27 09:05:24;;;;;;;;;;;16.60;99.90;;;;;;5067065;28;19921;-77
2021/08/27 09:07:50;;;;;;;;;;;16.80;99.90;;;;;;5049699;28;19923;-75
2021/08/27 09:10:19;;;;;;;;;;;17.00;99.90;;;;;;5064322;28;19994;-77
2021/08/27 09:12:45;;;;;;;;;;;17.10;99.90;;;;;;5069479;28;19913;-78
2021/08/27 09:15:11;;;;;;;;;;;17.30;99.90;;;;;;5064933;28;20177;-77
2021/08/27 09:17:41;;;;;;;;;;;17.60;99.90;;;;;;5068196;28;20001;-77
2021/08/27 09:20:08;;;;;;;;;;;17.70;99.90;;;;;;5054857;28;20212;-78
2021/08/27 09:22:49;;;;;;;;;;;17.80;99.90;;;;;;5057309;28;19909;-79
2021/08/27 09:25:16;;;;;;;;;;;17.90;99.90;;;;;;5070686;28;19924;-78
2021/08/27 09:28:00;;;;;;;;;;;18.00;99.90;;;;;;5074733;28;19912;-79
2021/08/27 09:30:27;;;;;;;;;;;18.30;99.90;;;;;;5069120;28;19913;-78
2021/08/27 09:32:55;;;;;;;;;;;18.50;99.90;;;;;;5071054;28;20318;-79
2021/08/27 09:35:24;;;;;;;;;;;18.40;99.90;;;;;;5074206;28;19970;-79
2021/08/27 09:37:51;;;;;;;;;;;18.20;99.90;;;;;;5055577;28;19916;-77
2021/08/27 09:40:18;;;;;;;;;;;18.10;99.90;;;;;;5056035;28;19913;-80
2021/08/27 09:42:51;;;;;;;;;;;18.30;99.90;;;;;;5071697;28;19917;-78
2021/08/27 09:45:31;;;;;;;;;;;18.50;99.90;;;;;;5056121;28;19999;-79
2021/08/27 09:48:09;;;;;;;;;;;18.70;99.90;;;;;;5071819;28;19919;-79
2021/08/27 09:50:36;;;;;;;;;;;18.90;99.90;;;;;;5071477;28;20097;-82
2021/08/27 09:53:05;;;;;;;;;;;18.90;99.90;;;;;;5073925;28;19912;-80
2021/08/27 09:55:32;;;;;;;;;;;19.00;99.90;;;;;;5056031;28;19917;-79
2021/08/27 09:58:08;;;;;;;;;;;18.90;99.90;;;;;;5071754;28;19916;-74
2021/08/27 10:00:35;;;;;;;;;;;18.60;99.90;;;;;;5068132;28;19919;-78
2021/08/27 10:03:03;;;;;;;;;;;18.70;99.90;;;;;;5054408;28;19923;-78
2021/08/27 10:05:37;;;;;;;;;;;18.70;99.90;;;;;;5073674;28;19928;-78
2021/08/27 10:08:37;;;;;;;;;;;18.60;99.90;;;;;;5071943;28;20299;-79
2021/08/27 10:11:17;;;;;;;;;;;18.40;99.90;;;;;;5059293;28;19919;-78
2021/08/27 10:13:43;;;;;;;;;;;18.20;99.90;;;;;;5052840;28;19912;-76
2021/08/27 10:16:08;;;;;;;;;;;18.10;99.90;;;;;;5053582;28;20003;-76
2021/08/27 10:18:35;;;;;;;;;;;18.00;99.90;;;;;;5053172;28;19940;-76
2021/08/27 10:21:02;;;;;;;;;;;17.80;99.90;;;;;;5072129;28;19919;-78
2021/08/27 10:23:28;;;;;;;;;;;17.60;99.90;;;;;;5073501;28;19917;-77
2021/08/27 10:25:54;;;;;;;;;;;17.60;99.90;;;;;;5057186;28;20342;-78
2021/08/27 10:28:19;;;;;;;;;;;17.60;99.90;;;;;;5054280;28;19928;-77
2021/08/27 10:30:48;;;;;;;;;;;17.60;99.90;;;;;;5072113;28;19923;-79
2021/08/27 10:33:18;;;;;;;;;;;17.70;99.90;;;;;;5056592;28;19921;-80
2021/08/27 10:35:44;;;;;;;;;;;17.90;99.90;;;;;;5065791;28;19912;-78
2021/08/27 10:38:30;;;;;;;;;;;18.00;99.90;;;;;;5054749;28;20312;-77
2021/08/27 10:41:07;;;;;;;;;;;18.10;99.90;;;;;;5067472;28;19916;-78
2021/08/27 10:43:47;;;;;;;;;;;18.20;99.90;;;;;;5072365;28;19912;-79
2021/08/27 10:46:13;;;;;;;;;;;18.00;99.90;;;;;;5052956;28;19929;-79
2021/08/27 10:48:47;;;;;;;;;;;17.60;99.90;;;;;;5058244;28;19934;-76
2021/08/27 10:51:33;;;;;;;;;;;17.20;99.90;;;;;;5062923;28;19916;-77
2021/08/27 10:53:58;;;;;;;;;;;16.70;99.90;;;;;;5064597;28;20315;-75
2021/08/27 10:56:43;;;;;;;;;;;16.40;99.90;;;;;;5070480;28;19923;-80
2021/08/27 10:59:09;;;;;;;;;;;16.20;99.90;;;;;;5061702;28;19916;-77
2021/08/27 11:01:36;;;;;;;;;;;16.10;99.90;;;;;;5056239;28;19927;-79
2021/08/27 11:04:06;;;;;;;;;;;16.00;99.90;;;;;;5048696;28;19917;-77
2021/08/27 11:06:41;;;;;;;;;;;16.00;99.90;;;;;;5067160;28;19912;-77
2021/08/27 11:09:33;;;;;;;;;;;16.10;99.90;;;;;;5064032;28;19976;-76
2021/08/27 11:12:13;;;;;;;;;;;16.20;99.90;;;;;;5041046;28;19917;-77
2021/08/27 11:14:39;;;;;;;;;;;16.30;99.90;;;;;;5048860;28;19912;-75
2021/08/27 11:17:06;;;;;;;;;;;16.50;99.90;;;;;;5054275;28;19916;-77
2021/08/27 11:19:36;;;;;;;;;;;16.70;99.90;;;;;;5071389;28;19971;-77
2021/08/27 11:22:11;;;;;;;;;;;16.80;99.90;;;;;;5072272;28;19916;-76
2021/08/27 11:24:37;;;;;;;;;;;17.30;99.90;;;;;;5046701;28;19917;-77
2021/08/27 11:27:07;;;;;;;;;;;17.70;99.90;;;;;;5050515;28;19921;-76
2021/08/27 11:29:32;;;;;;;;;;;18.00;99.90;;;;;;5073625;28;19912;-76
2021/08/27 11:32:07;;;;;;;;;;;18.10;99.90;;;;;;5044332;28;19920;-75
2021/08/27 11:35:08;;;;;;;;;;;18.20;99.90;;;;;;5059580;28;19912;-78
2021/08/27 11:37:33;;;;;;;;;;;18.40;99.90;;;;;;5019035;28;19909;-76
2021/08/27 11:40:00;;;;;;;;;;;18.50;99.90;;;;;;4990565;28;19997;-77
2021/08/27 11:42:26;;;;;;;;;;;18.40;99.90;;;;;;4994292;28;20221;-77
2021/08/27 11:45:04;;;;;;;;;;;18.40;99.90;;;;;;5015289;28;19925;-77
2021/08/27 11:47:41;;;;;;;;;;;18.20;99.90;;;;;;4999535;28;19936;-77
2021/08/27 11:50:07;;;;;;;;;;;18.10;99.90;;;;;;5011281;28;19914;-78
2021/08/27 11:52:34;;;;;;;;;;;18.40;99.90;;;;;;4993371;28;19917;-80
2021/08/27 11:55:01;;;;;;;;;;;18.40;99.90;;;;;;5010686;28;19917;-77
2021/08/27 11:57:27;;;;;;;;;;;18.10;99.90;;;;;;5019862;28;19913;-78
2021/08/27 12:00:06;;;;;;;;;;;17.90;99.90;;;;;;5001278;28;19923;-77
2021/08/27 12:02:31;;;;;;;;;;;17.70;99.90;;;;;;5015644;28;19920;-78
2021/08/27 12:04:58;;;;;;;;;;;17.60;99.90;;;;;;4993222;28;20356;-78
2021/08/27 12:07:27;;;;;;;;;;;17.80;99.90;;;;;;4989767;28;20730;-78
2021/08/27 12:10:22;;;;;;;;;;;18.10;99.90;;;;;;5003204;28;20214;-79
2021/08/27 12:12:48;;;;;;;;;;;18.10;99.90;;;;;;5003036;28;20408;-78
2021/08/27 12:15:15;;;;;;;;;;;18.20;99.90;;;;;;5003984;28;19918;-78
2021/08/27 12:17:51;;;;;;;;;;;18.10;99.90;;;;;;5004618;28;19948;-78
2021/08/27 12:20:17;;;;;;;;;;;18.10;99.90;;;;;;5003802;28;19922;-78
2021/08/27 12:22:45;;;;;;;;;;;18.30;99.90;;;;;;5003698;28;20538;-78
2021/08/27 12:25:18;;;;;;;;;;;18.60;99.90;;;;;;4988189;28;19925;-76
2021/08/27 12:27:48;;;;;;;;;;;18.80;99.90;;;;;;5001650;28;19925;-78
2021/08/27 12:30:14;;;;;;;;;;;19.00;99.90;;;;;;5003284;28;20056;-76
2021/08/27 12:32:41;;;;;;;;;;;19.10;99.90;;;;;;4983294;28;20337;-78
2021/08/27 12:35:08;;;;;;;;;;;19.20;99.90;;;;;;4998217;28;20363;-78
2021/08/27 12:37:34;;;;;;;;;;;19.10;99.90;;;;;;5006661;28;19917;-78
2021/08/27 12:40:00;;;;;;;;;;;18.80;99.90;;;;;;5005543;28;19921;-80
2021/08/27 12:42:25;;;;;;;;;;;18.50;99.90;;;;;;5109630;23;20349;-79
2021/08/27 12:45:03;;;;;;;;;;;18.40;99.90;;;;;;5065674;28;19912;-77
2021/08/27 12:47:33;;;;;;;;;;;18.30;99.90;;;;;;5096229;28;19927;-76
2021/08/27 12:50:00;;;;;;;;;;;18.70;99.90;;;;;;5089179;28;19932;-76
2021/08/27 12:52:25;;;;;;;;;;;18.70;99.90;;;;;;5071012;28;20332;-75
2021/08/27 12:54:51;;;;;;;;;;;18.50;99.90;;;;;;5085634;28;19948;-78
2021/08/27 12:57:16;;;;;;;;;;;18.30;99.90;;;;;;5097089;28;20314;-79
2021/08/27 12:59:55;;;;;;;;;;;18.10;99.90;;;;;;5080452;28;19912;-77
2021/08/27 13:02:21;;;;;;;;;;;17.90;99.90;;;;;;5090401;28;19916;-77
2021/08/27 13:04:48;;;;;;;;;;;18.10;99.90;;;;;;5088418;28;20317;-78
2021/08/27 13:07:26;;;;;;;;;;;18.30;99.90;;;;;;5079038;28;20400;-75
2021/08/27 13:10:12;;;;;;;;;;;18.50;99.90;;;;;;5076783;28;19923;-76
2021/08/27 13:12:39;;;;;;;;;;;18.40;99.90;;;;;;5062319;28;19919;-77
2021/08/27 13:15:14;;;;;;;;;;;18.60;99.90;;;;;;5089762;28;20304;-76
2021/08/27 13:17:40;;;;;;;;;;;18.90;99.90;;;;;;5075837;28;20264;-77
2021/08/27 13:20:05;;;;;;;;;;;19.00;99.90;;;;;;5077630;28;19920;-78
2021/08/27 13:22:31;;;;;;;;;;;18.90;99.90;;;;;;5090233;28;19938;-78
2021/08/27 13:25:03;;;;;;;;;;;18.70;99.90;;;;;;5090452;28;19917;-76
2021/08/27 13:27:29;;;;;;;;;;;18.50;99.90;;;;;;5076521;28;19912;-77
2021/08/27 13:29:54;;;;;;;;;;;18.40;99.90;;;;;;5091273;28;20223;-77
2021/08/27 13:32:24;;;;;;;;;;;18.30;99.90;;;;;;5092804;28;19916;-75
2021/08/27 13:34:50;;;;;;;;;;;18.40;99.90;;;;;;5090280;28;20038;-78
2021/08/27 13:37:16;;;;;;;;;;;18.30;99.90;;;;;;5076724;28;20351;-76
2021/08/27 13:39:41;;;;;;;;;;;18.40;99.90;;;;;;5088733;28;20242;-75
2021/08/27 13:42:07;;;;;;;;;;;18.40;99.90;;;;;;5061093;28;19948;-78
2021/08/27 13:44:32;;;;;;;;;;;18.50;99.90;;;;;;5091917;28;19916;-76
2021/08/27 13:46:58;;;;;;;;;;;18.50;99.90;;;;;;5076119;28;20380;-80
2021/08/27 13:49:23;;;;;;;;;;;18.50;99.90;;;;;;5089302;28;20007;-77
2021/08/27 13:51:49;;;;;;;;;;;18.50;99.90;;;;;;5091561;28;19926;-76
2021/08/27 13:54:15;;;;;;;;;;;18.50;99.90;;;;;;5094309;28;20347;-77
2021/08/27 13:56:41;;;;;;;;;;;18.50;99.90;;;;;;5092085;28;19965;-77
2021/08/27 13:59:06;;;;;;;;;;;18.60;99.90;;;;;;5088897;28;20231;-77
2021/08/27 14:01:32;;;;;;;;;;;18.70;99.90;;;;;;5085838;28;20003;-80
2021/08/27 14:03:58;;;;;;;;;;;18.90;99.90;;;;;;5093269;28;19920;-77
2021/08/27 14:06:24;;;;;;;;;;;18.90;99.90;;;;;;5090418;28;19919;-78
2021/08/27 14:08:49;;;;;;;;;;;18.70;99.90;;;;;;5085848;28;19916;-76
2021/08/27 14:11:15;;;;;;;;;;;18.60;99.90;;;;;;5077335;28;20101;-76
2021/08/27 14:13:40;;;;;;;;;;;18.60;99.90;;;;;;5075494;28;19920;-78
2021/08/27 14:16:07;;;;;;;;;;;18.60;99.90;;;;;;5075095;28;19916;-77
2021/08/27 14:18:33;;;;;;;;;;;18.80;99.90;;;;;;5078738;28;19912;-76